createdAt,value
2022-08-05T00:01:36.316Z,22.04
2022-08-05T00:04:17.512Z,22.02
2022-08-05T00:06:47.046Z,22.01
2022-08-05T00:09:19.551Z,21.97
2022-08-05T00:11:55.752Z,21.95
2022-08-05T00:14:27.658Z,21.92
2022-08-05T00:16:58.106Z,21.90
2022-08-05T00:19:32.871Z,21.87
2022-08-05T00:22:11.306Z,21.84
2022-08-05T00:24:42.394Z,21.83
2022-08-05T00:27:28.552Z,21.82
2022-08-05T00:30:03.448Z,21.79
2022-08-05T00:32:31.960Z,21.77
2022-08-05T00:35:07.559Z,21.75
2022-08-05T00:37:53.414Z,21.74
2022-08-05T00:40:26.766Z,21.73
2022-08-05T00:43:00.391Z,21.72
2022-08-05T00:45:38.587Z,21.69
2022-08-05T00:48:13.026Z,21.65
2022-08-05T00:50:44.375Z,21.61
2022-08-05T00:54:00.330Z,21.58
2022-08-05T00:56:05.542Z,21.57
2022-08-05T00:58:38.091Z,21.57
2022-08-05T01:01:09.069Z,21.56
2022-08-05T01:03:38.607Z,21.56
2022-08-05T01:06:14.145Z,21.53
2022-08-05T01:08:44.666Z,21.50
2022-08-05T01:11:22.718Z,21.45
2022-08-05T01:14:03.810Z,21.41
2022-08-05T01:16:44.460Z,21.37
2022-08-05T01:19:46.308Z,21.32
2022-08-05T01:22:41.593Z,21.28
2022-08-05T01:25:39.632Z,21.24
2022-08-05T01:28:30.546Z,21.20
2022-08-05T01:31:03.426Z,21.18
2022-08-05T01:33:35.965Z,21.14
2022-08-05T01:36:12.950Z,21.11
2022-08-05T01:38:43.431Z,21.08
2022-08-05T01:41:16.518Z,21.05
2022-08-05T01:43:53.703Z,21.03
2022-08-05T01:46:42.280Z,21.02
2022-08-05T01:49:22.924Z,21.01
2022-08-05T01:52:17.437Z,21.01
2022-08-05T01:54:59.015Z,20.99
2022-08-05T01:58:18.941Z,20.99
2022-08-05T02:00:29.881Z,20.98
2022-08-05T02:03:07.663Z,20.98
2022-08-05T02:05:59.686Z,20.95
2022-08-05T02:08:30.760Z,20.93
2022-08-05T02:11:06.047Z,20.89
2022-08-05T02:13:53.062Z,20.88
2022-08-05T02:16:28.087Z,20.87
2022-08-05T02:18:58.033Z,20.85
2022-08-05T02:21:29.214Z,20.82
2022-08-05T02:24:10.231Z,20.79
2022-08-05T02:26:54.717Z,20.76
2022-08-05T02:29:58.226Z,20.72
2022-08-05T02:32:23.758Z,20.67
2022-08-05T02:34:55.295Z,20.63
2022-08-05T02:37:25.284Z,20.59
2022-08-05T02:39:55.004Z,20.54
2022-08-05T02:42:26.140Z,20.52
2022-08-05T02:44:58.749Z,20.49
2022-08-05T02:48:06.970Z,20.48
2022-08-05T02:50:19.065Z,20.45
2022-08-05T02:52:48.313Z,20.41
2022-08-05T02:55:17.678Z,20.39
2022-08-05T02:58:19.949Z,20.36
2022-08-05T03:00:49.928Z,20.34
2022-08-05T03:03:20.907Z,20.31
2022-08-05T03:06:53.879Z,20.27
2022-08-05T03:08:43.181Z,20.27
2022-08-05T03:11:54.843Z,20.28
2022-08-05T03:14:08.049Z,20.29
2022-08-05T03:16:36.770Z,20.31
2022-08-05T03:19:12.756Z,20.31
2022-08-05T03:21:48.837Z,20.30
2022-08-05T03:24:27.562Z,20.29
2022-08-05T03:26:58.431Z,20.27
2022-08-05T03:29:44.785Z,20.25
2022-08-05T03:32:16.261Z,20.21
2022-08-05T03:34:51.366Z,20.19
2022-08-05T03:37:20.912Z,20.18
2022-08-05T03:40:11.750Z,20.17
2022-08-05T03:42:51.511Z,20.15
2022-08-05T03:45:23.335Z,20.13
2022-08-05T03:47:56.853Z,20.13
2022-08-05T03:50:30.194Z,20.13
2022-08-05T03:55:51.304Z,20.14
2022-08-05T03:56:12.225Z,20.12
2022-08-05T03:58:48.041Z,20.10
2022-08-05T04:01:22.050Z,20.09
2022-08-05T04:04:09.211Z,20.06
2022-08-05T04:06:47.433Z,20.03
2022-08-05T04:09:25.946Z,20.01
2022-08-05T04:11:56.381Z,19.97
2022-08-05T04:14:30.074Z,19.97
2022-08-05T04:17:00.926Z,19.96
2022-08-05T04:19:31.459Z,19.97
2022-08-05T04:22:08.863Z,19.96
2022-08-05T04:24:43.920Z,19.97
2022-08-05T04:27:20.216Z,19.95
2022-08-05T04:30:03.752Z,19.93
2022-08-05T04:32:33.392Z,19.91
2022-08-05T04:35:03.765Z,19.89
2022-08-05T04:38:01.278Z,19.85
2022-08-05T04:40:23.113Z,19.83
2022-08-05T04:42:51.459Z,19.81
2022-08-05T04:45:31.188Z,19.79
2022-08-05T04:48:18.375Z,19.76
2022-08-05T04:51:03.021Z,19.75
2022-08-05T04:53:35.424Z,19.73
2022-08-05T04:56:32.958Z,19.74
2022-08-05T04:58:52.678Z,19.73
2022-08-05T05:02:05.564Z,19.72
2022-08-05T05:04:09.476Z,19.71
2022-08-05T05:06:44.828Z,19.69
2022-08-05T05:09:18.916Z,19.70
2022-08-05T05:11:53.176Z,19.71
2022-08-05T05:14:27.928Z,19.72
2022-08-05T05:17:00.656Z,19.71
2022-08-05T05:19:36.631Z,19.71
2022-08-05T05:22:22.847Z,19.72
2022-08-05T05:24:57.874Z,19.72
2022-08-05T05:27:44.415Z,19.71
2022-08-05T05:30:15.419Z,19.71
2022-08-05T05:32:57.325Z,19.69
2022-08-05T05:35:34.111Z,19.71
2022-08-05T05:38:13.172Z,19.72
2022-08-05T05:40:49.432Z,19.74
2022-08-05T05:43:27.940Z,19.74
2022-08-05T05:46:15.697Z,19.75
2022-08-05T05:48:44.846Z,19.76
2022-08-05T05:51:20.107Z,19.78
2022-08-05T05:53:57.540Z,19.78
2022-08-05T05:56:32.240Z,19.80
2022-08-05T05:59:03.164Z,19.80
2022-08-05T06:01:36.986Z,19.81
2022-08-05T06:04:07.479Z,19.82
2022-08-05T06:06:36.429Z,19.81
2022-08-05T06:09:07.714Z,19.81
2022-08-05T06:11:39.361Z,19.81
2022-08-05T06:14:08.063Z,19.80
2022-08-05T06:16:37.276Z,19.80
2022-08-05T06:19:07.348Z,19.78
2022-08-05T06:21:38.428Z,19.76
2022-08-05T06:24:12.101Z,19.75
2022-08-05T06:26:51.530Z,19.73
2022-08-05T06:29:45.330Z,19.71
2022-08-05T06:32:26.281Z,19.70
2022-08-05T06:34:58.654Z,19.68
2022-08-05T06:37:56.301Z,19.67
2022-08-05T06:40:17.892Z,19.64
2022-08-05T06:42:51.552Z,19.63
2022-08-05T06:46:02.915Z,19.59
2022-08-05T06:48:47.060Z,19.59
2022-08-05T06:51:00.255Z,19.58
2022-08-05T06:53:29.410Z,19.56
2022-08-05T06:55:59.364Z,19.54
2022-08-05T06:58:36.498Z,19.51
2022-08-05T07:01:07.078Z,19.49
2022-08-05T07:03:35.879Z,19.47
2022-08-05T07:06:06.076Z,19.45
2022-08-05T07:08:47.913Z,19.42
2022-08-05T07:11:22.227Z,19.38
2022-08-05T07:14:20.037Z,19.34
2022-08-05T07:17:58.676Z,19.29
2022-08-05T07:20:32.485Z,19.28
2022-08-05T07:22:38.938Z,19.25
2022-08-05T07:25:22.509Z,19.23
2022-08-05T07:28:05.328Z,19.19
2022-08-05T07:30:40.305Z,19.17
2022-08-05T07:33:15.520Z,19.14
2022-08-05T07:36:02.190Z,19.11
2022-08-05T07:38:35.657Z,19.07
2022-08-05T07:42:06.863Z,19.04
2022-08-05T07:44:06.068Z,19.02
2022-08-05T07:46:45.943Z,18.98
2022-08-05T07:49:18.014Z,18.96
2022-08-05T07:51:53.441Z,18.94
2022-08-05T07:54:31.619Z,18.92
2022-08-05T07:57:17.860Z,18.91
2022-08-05T07:59:51.361Z,18.91
2022-08-05T08:02:26.571Z,18.91
2022-08-05T08:04:56.077Z,18.89
2022-08-05T08:07:24.756Z,18.88
2022-08-05T08:09:56.992Z,18.87
2022-08-05T08:12:35.549Z,18.85
2022-08-05T08:15:15.605Z,18.82
2022-08-05T08:17:50.734Z,18.81
2022-08-05T08:21:00.144Z,18.80
2022-08-05T08:24:02.215Z,18.78
2022-08-05T08:26:02.646Z,18.77
2022-08-05T08:28:36.849Z,18.75
2022-08-05T08:31:17.333Z,18.73
2022-08-05T08:33:51.775Z,18.72
2022-08-05T08:36:38.197Z,18.70
2022-08-05T08:39:15.463Z,18.68
2022-08-05T08:41:50.752Z,18.65
2022-08-05T08:45:18.857Z,18.63
2022-08-05T08:47:47.699Z,18.63
2022-08-05T08:50:31.102Z,18.62
2022-08-05T08:52:57.626Z,18.59
2022-08-05T08:55:32.134Z,18.59
2022-08-05T08:58:17.460Z,18.55
2022-08-05T09:00:46.858Z,18.54
2022-08-05T09:03:19.161Z,18.52
2022-08-05T09:06:09.132Z,18.53
2022-08-05T09:08:40.515Z,18.54
2022-08-05T09:11:12.172Z,18.55
2022-08-05T09:14:09.214Z,18.58
2022-08-05T09:16:31.290Z,18.62
2022-08-05T09:18:59.760Z,18.64
2022-08-05T09:22:21.772Z,18.66
2022-08-05T09:24:18.169Z,18.69
2022-08-05T09:26:48.605Z,18.70
2022-08-05T09:29:20.871Z,18.74
2022-08-05T09:32:45.964Z,18.76
2022-08-05T09:34:54.955Z,18.78
2022-08-05T09:38:17.209Z,18.81
2022-08-05T09:40:32.121Z,18.83
2022-08-05T09:43:02.064Z,18.84
2022-08-05T09:46:06.671Z,18.86
2022-08-05T09:48:30.310Z,18.87
2022-08-05T09:51:01.801Z,18.89
2022-08-05T09:53:54.431Z,18.89
2022-08-05T09:56:27.386Z,18.90
2022-08-05T09:59:00.509Z,18.93
2022-08-05T10:01:32.395Z,18.94
2022-08-05T10:04:04.556Z,18.96
2022-08-05T10:06:41.480Z,18.99
2022-08-05T10:09:28.325Z,19.04
2022-08-05T10:12:30.251Z,19.08
2022-08-05T10:15:20.404Z,19.13
2022-08-05T10:18:14.036Z,19.17
2022-08-05T10:20:47.913Z,19.23
2022-08-05T10:23:34.442Z,19.28
2022-08-05T10:26:14.368Z,19.36
2022-08-05T10:28:44.108Z,19.44
2022-08-05T10:32:50.500Z,19.50
2022-08-05T10:34:03.338Z,19.56
2022-08-05T10:36:32.101Z,19.63
2022-08-05T10:39:11.741Z,19.69
2022-08-05T10:41:56.802Z,19.76
2022-08-05T10:44:31.865Z,19.84
2022-08-05T10:47:26.487Z,19.92
2022-08-05T10:50:32.838Z,19.99
2022-08-05T10:52:58.588Z,20.10
2022-08-05T10:55:30.307Z,20.18
2022-08-05T10:58:11.256Z,20.26
2022-08-05T11:00:46.828Z,20.34
2022-08-05T11:03:25.629Z,20.39
2022-08-05T11:06:15.792Z,20.46
2022-08-05T11:09:31.877Z,20.54
2022-08-05T11:12:50.792Z,20.60
2022-08-05T11:16:00.276Z,20.66
2022-08-05T11:18:29.755Z,20.74
2022-08-05T11:20:58.953Z,20.82
2022-08-05T11:24:05.660Z,20.94
2022-08-05T11:26:33.442Z,21.12
2022-08-05T11:29:12.699Z,21.29
2022-08-05T11:31:57.453Z,21.42
2022-08-05T11:34:47.532Z,21.53
2022-08-05T11:38:26.664Z,21.66
2022-08-05T11:41:13.987Z,21.77
2022-08-05T11:44:05.874Z,21.90
2022-08-05T11:47:09.296Z,22.05
2022-08-05T11:49:28.254Z,22.15
2022-08-05T11:51:58.799Z,22.22
2022-08-05T11:54:33.989Z,22.34
2022-08-05T11:57:08.384Z,22.43
2022-08-05T11:59:53.213Z,22.49
2022-08-05T12:02:31.467Z,22.52
2022-08-05T12:05:06.982Z,22.50
2022-08-05T12:08:10.329Z,22.52
2022-08-05T12:10:43.110Z,22.55
2022-08-05T12:13:27.947Z,22.57
2022-08-05T12:16:14.449Z,22.58
2022-08-05T12:18:53.144Z,22.59
2022-08-05T12:21:26.979Z,22.63
2022-08-05T12:24:07.180Z,22.65
2022-08-05T12:26:38.940Z,22.70
2022-08-05T12:29:09.360Z,22.72
2022-08-05T12:31:50.108Z,22.75
2022-08-05T12:34:26.723Z,22.81
2022-08-05T12:36:58.546Z,22.85
2022-08-05T12:39:37.302Z,22.93
2022-08-05T12:42:18.097Z,22.99
2022-08-05T12:44:51.491Z,23.08
2022-08-05T12:47:30.565Z,23.21
2022-08-05T12:50:13.454Z,23.32
2022-08-05T12:52:43.336Z,23.39
2022-08-05T12:55:22.689Z,23.44
2022-08-05T12:58:48.881Z,23.50
2022-08-05T13:02:02.520Z,23.57
2022-08-05T13:03:41.474Z,23.70
2022-08-05T13:06:16.031Z,23.85
2022-08-05T13:08:52.129Z,23.99
2022-08-05T13:12:01.436Z,24.01
2022-08-05T13:14:24.680Z,23.97
2022-08-05T13:17:09.743Z,23.89
2022-08-05T13:19:40.475Z,23.81
2022-08-05T13:22:29.230Z,23.72
2022-08-05T13:25:05.643Z,23.61
2022-08-05T13:27:39.196Z,23.50
2022-08-05T13:30:32.752Z,23.36
2022-08-05T13:33:01.517Z,23.22
2022-08-05T13:35:43.282Z,23.13
2022-08-05T13:38:20.500Z,23.03
2022-08-05T13:41:01.457Z,22.99
2022-08-05T13:43:45.266Z,22.96
2022-08-05T13:46:37.662Z,22.90
2022-08-05T13:49:10.261Z,22.83
2022-08-05T13:51:41.787Z,22.79
2022-08-05T13:54:17.210Z,22.74
2022-08-05T13:56:55.066Z,22.67
2022-08-05T13:59:27.150Z,22.63
2022-08-05T14:01:59.553Z,22.59
2022-08-05T14:04:50.154Z,22.59
2022-08-05T14:07:26.072Z,22.56
2022-08-05T14:10:13.164Z,22.56
2022-08-05T14:12:48.423Z,22.55
2022-08-05T14:16:07.006Z,22.54
2022-08-05T14:18:14.923Z,22.56
2022-08-05T14:20:47.261Z,22.59
2022-08-05T14:23:23.347Z,22.61
2022-08-05T14:25:54.490Z,22.65
2022-08-05T14:28:28.590Z,22.67
2022-08-05T14:30:57.314Z,22.70
2022-08-05T14:33:25.847Z,22.79
2022-08-05T14:35:54.880Z,22.88
2022-08-05T14:38:32.267Z,22.96
2022-08-05T14:41:06.393Z,23.01
2022-08-05T14:43:59.451Z,23.00
2022-08-05T14:46:29.789Z,23.00
2022-08-05T14:49:04.190Z,23.02
2022-08-05T14:51:37.610Z,23.12
2022-08-05T14:54:28.350Z,23.18
2022-08-05T14:56:55.533Z,23.24
2022-08-05T14:59:25.367Z,23.26
2022-08-05T15:01:58.261Z,23.28
2022-08-05T15:04:29.162Z,23.27
2022-08-05T15:06:57.758Z,23.19
2022-08-05T15:09:51.388Z,23.17
2022-08-05T15:12:16.800Z,23.16
2022-08-05T15:14:49.709Z,23.15
2022-08-05T15:17:47.339Z,23.17
2022-08-05T15:20:18.701Z,23.23
2022-08-05T15:22:52.158Z,23.35
2022-08-05T15:25:23.448Z,23.46
2022-08-05T15:28:14.294Z,23.52
2022-08-05T15:30:46.212Z,23.55
2022-08-05T15:33:56.678Z,23.60
2022-08-05T15:36:05.457Z,23.69
2022-08-05T15:38:40.800Z,23.79
2022-08-05T15:41:21.539Z,23.86
2022-08-05T15:43:54.671Z,23.87
2022-08-05T15:46:25.303Z,23.86
2022-08-05T15:48:58.631Z,23.82
2022-08-05T15:52:12.645Z,23.77
2022-08-05T15:54:19.713Z,23.69
2022-08-05T15:56:48.059Z,23.63
2022-08-05T15:59:19.947Z,23.54
2022-08-05T16:01:53.591Z,23.45
2022-08-05T16:04:25.637Z,23.33
2022-08-05T16:06:55.780Z,23.25
2022-08-05T16:09:24.976Z,23.17
2022-08-05T16:11:56.494Z,23.10
2022-08-05T16:14:24.903Z,23.04
2022-08-05T16:16:57.606Z,23.02
2022-08-05T16:20:05.657Z,23.03
2022-08-05T16:22:15.502Z,22.99
2022-08-05T16:24:51.183Z,22.99
2022-08-05T16:27:32.278Z,22.98
2022-08-05T16:30:25.748Z,22.93
2022-08-05T16:32:56.773Z,22.86
2022-08-05T16:35:28.531Z,22.83
2022-08-05T16:38:03.007Z,22.89
2022-08-05T16:40:47.917Z,23.06
2022-08-05T16:43:24.044Z,23.24
2022-08-05T16:46:05.897Z,23.41
2022-08-05T16:48:39.118Z,23.64
2022-08-05T16:51:09.452Z,23.79
2022-08-05T16:54:02.450Z,23.84
2022-08-05T16:56:30.501Z,23.94
2022-08-05T16:59:03.127Z,24.01
2022-08-05T17:01:54.024Z,24.05
2022-08-05T17:04:27.984Z,24.06
2022-08-05T17:07:01.253Z,24.02
2022-08-05T17:09:38.785Z,23.98
2022-08-05T17:12:22.627Z,23.97
2022-08-05T17:15:08.491Z,24.00
2022-08-05T17:17:41.953Z,24.00
2022-08-05T17:20:14.794Z,23.98
2022-08-05T17:22:43.335Z,23.98
2022-08-05T17:25:33.945Z,23.97
2022-08-05T17:28:01.786Z,23.87
2022-08-05T17:30:30.221Z,23.78
2022-08-05T17:32:58.698Z,23.71
2022-08-05T17:35:32.556Z,23.64
2022-08-05T17:38:17.454Z,23.56
2022-08-05T17:40:46.036Z,23.53
2022-08-05T17:43:16.006Z,23.47
2022-08-05T17:45:47.822Z,23.41
2022-08-05T17:48:21.133Z,23.34
2022-08-05T17:50:54.588Z,23.28
2022-08-05T17:53:25.764Z,23.19
2022-08-05T17:55:59.750Z,23.11
2022-08-05T17:58:32.269Z,23.03
2022-08-05T18:01:01.220Z,22.94
2022-08-05T18:03:59.641Z,22.86
2022-08-05T18:06:19.805Z,22.74
2022-08-05T18:08:57.967Z,22.65
2022-08-05T18:11:33.555Z,22.52
2022-08-05T18:14:06.600Z,22.41
2022-08-05T18:16:51.080Z,22.33
2022-08-05T18:19:22.708Z,22.25
2022-08-05T18:22:09.010Z,22.16
2022-08-05T18:24:40.200Z,22.08
2022-08-05T18:27:08.806Z,22.02
2022-08-05T18:29:51.992Z,21.96
2022-08-05T18:32:28.075Z,21.91
2022-08-05T18:34:58.703Z,21.86
2022-08-05T18:37:34.353Z,21.81
2022-08-05T18:40:34.233Z,21.75
2022-08-05T18:42:58.617Z,21.69
2022-08-05T18:45:40.946Z,21.62
2022-08-05T18:48:11.215Z,21.56
2022-08-05T18:51:01.754Z,21.51
2022-08-05T18:53:50.466Z,21.44
2022-08-05T18:56:21.897Z,21.40
2022-08-05T18:58:54.999Z,21.33
2022-08-05T19:01:47.413Z,21.26
2022-08-05T19:04:24.074Z,21.19
2022-08-05T19:06:53.713Z,21.13
2022-08-05T19:09:23.600Z,21.07
2022-08-05T19:12:01.062Z,21.02
2022-08-05T19:14:53.378Z,20.95
2022-08-05T19:17:19.321Z,20.88
2022-08-05T19:19:48.660Z,20.83
2022-08-05T19:22:17.945Z,20.77
2022-08-05T19:24:54.353Z,20.72
2022-08-05T19:27:27.930Z,20.66
2022-08-05T19:29:58.982Z,20.59
2022-08-05T19:32:27.814Z,20.54
2022-08-05T19:34:56.725Z,20.49
2022-08-05T19:37:29.808Z,20.42
2022-08-05T19:40:09.989Z,20.36
2022-08-05T19:42:39.128Z,20.29
2022-08-05T19:45:08.871Z,20.23
2022-08-05T19:47:43.016Z,20.14
2022-08-05T19:50:12.694Z,20.07
2022-08-05T19:52:41.368Z,19.98
2022-08-05T19:56:15.347Z,19.91
2022-08-05T19:58:19.781Z,19.80
2022-08-05T20:00:50.560Z,19.73
2022-08-05T20:03:20.661Z,19.65
2022-08-05T20:05:51.141Z,19.59
2022-08-05T20:08:24.577Z,19.54
2022-08-05T20:10:55.150Z,19.49
2022-08-05T20:13:30.007Z,19.44
2022-08-05T20:15:59.576Z,19.40
2022-08-05T20:18:33.967Z,19.34
2022-08-05T20:21:05.137Z,19.31
2022-08-05T20:23:39.960Z,19.26
2022-08-05T20:26:22.008Z,19.23
2022-08-05T20:28:54.037Z,19.20
2022-08-05T20:31:36.805Z,19.17
2022-08-05T20:34:06.073Z,19.15
2022-08-05T20:36:37.038Z,19.12
2022-08-05T20:39:07.707Z,19.09
2022-08-05T20:41:43.858Z,19.07
2022-08-05T20:44:19.161Z,19.03
2022-08-05T20:46:59.091Z,18.98
2022-08-05T20:49:28.216Z,18.93
2022-08-05T20:51:58.068Z,18.90
2022-08-05T20:54:43.239Z,18.86
2022-08-05T20:57:42.095Z,18.80
2022-08-05T21:00:34.897Z,18.75
2022-08-05T21:03:07.182Z,18.71
2022-08-05T21:05:47.620Z,18.68
2022-08-05T21:08:32.891Z,18.65
2022-08-05T21:11:11.910Z,18.60
2022-08-05T21:13:47.820Z,18.56
2022-08-05T21:16:30.219Z,18.51
2022-08-05T21:19:01.134Z,18.47
2022-08-05T21:21:39.019Z,18.43
2022-08-05T21:24:15.704Z,18.38
2022-08-05T21:26:53.543Z,18.32
2022-08-05T21:29:31.447Z,18.28
2022-08-05T21:32:02.164Z,18.22
2022-08-05T21:34:31.671Z,18.19
2022-08-05T21:37:01.667Z,18.13
2022-08-05T21:39:30.474Z,18.06
2022-08-05T21:42:03.052Z,18.01
2022-08-05T21:44:33.376Z,17.98
2022-08-05T21:47:02.017Z,17.91
2022-08-05T21:49:58.932Z,17.86
2022-08-05T21:52:27.451Z,17.82
2022-08-05T21:54:57.560Z,17.78
2022-08-05T21:57:35.021Z,17.74
2022-08-05T22:00:11.241Z,17.69
2022-08-05T22:02:43.966Z,17.66
2022-08-05T22:05:14.223Z,17.63
2022-08-05T22:07:59.567Z,17.60
2022-08-05T22:10:31.012Z,17.58
2022-08-05T22:13:09.356Z,17.53
2022-08-05T22:16:01.367Z,17.49
2022-08-05T22:18:36.371Z,17.44
2022-08-05T22:21:17.894Z,17.40
2022-08-05T22:24:08.996Z,17.35
2022-08-05T22:26:59.865Z,17.30
2022-08-05T22:29:30.560Z,17.26
2022-08-05T22:32:03.448Z,17.23
2022-08-05T22:34:32.557Z,17.19
2022-08-05T22:37:03.858Z,17.17
2022-08-05T22:39:34.493Z,17.14
2022-08-05T22:42:12.448Z,17.11
2022-08-05T22:44:48.424Z,17.07
2022-08-05T22:47:29.828Z,17.02
2022-08-05T22:50:19.630Z,16.99
2022-08-05T22:52:49.639Z,16.95
2022-08-05T22:55:21.380Z,16.91
2022-08-05T22:57:50.780Z,16.84
2022-08-05T23:00:21.162Z,16.80
2022-08-05T23:02:53.216Z,16.74
2022-08-05T23:05:23.437Z,16.70
2022-08-05T23:07:53.287Z,16.64
2022-08-05T23:10:23.995Z,16.59
2022-08-05T23:12:55.610Z,16.55
2022-08-05T23:15:26.993Z,16.50
2022-08-05T23:18:03.310Z,16.44
2022-08-05T23:20:37.509Z,16.38
2022-08-05T23:23:08.657Z,16.34
2022-08-05T23:25:51.688Z,16.32
2022-08-05T23:28:27.790Z,16.27
2022-08-05T23:31:16.247Z,16.22
2022-08-05T23:34:04.361Z,16.16
2022-08-05T23:36:38.615Z,16.13
2022-08-05T23:39:17.314Z,16.09
2022-08-05T23:42:01.183Z,16.08
2022-08-05T23:44:31.313Z,16.04
2022-08-05T23:47:02.428Z,16.01
2022-08-05T23:49:35.602Z,15.96
2022-08-05T23:52:25.205Z,15.92
2022-08-05T23:54:55.183Z,15.89
2022-08-05T23:57:24.464Z,15.86
